createdAt,value
2022-10-18T00:01:16.266Z,3.28
2022-10-18T00:03:45.002Z,4.60
2022-10-18T00:06:13.525Z,4.30
2022-10-18T00:08:41.782Z,5.25
2022-10-18T00:11:11.547Z,5.63
2022-10-18T00:13:39.880Z,3.58
2022-10-18T00:16:13.038Z,6.70
2022-10-18T00:18:41.426Z,3.92
2022-10-18T00:21:17.962Z,5.22
2022-10-18T00:23:49.539Z,4.15
2022-10-18T00:26:21.356Z,5.18
2022-10-18T00:28:55.698Z,6.90
2022-10-18T00:31:28.338Z,5.57
2022-10-18T00:33:59.081Z,4.18
2022-10-18T00:36:29.138Z,5.20
2022-10-18T00:38:57.476Z,6.95
2022-10-18T00:41:29.107Z,4.78
2022-10-18T00:46:28.614Z,4.95
2022-10-18T00:49:03.967Z,4.90
2022-10-18T00:51:36.500Z,6.68
2022-10-18T00:54:04.994Z,4.82
2022-10-18T00:56:35.662Z,5.72
2022-10-18T00:59:04.409Z,7.13
2022-10-18T01:09:10.582Z,3.90
2022-10-18T01:11:59.619Z,5.47
2022-10-18T01:14:41.192Z,4.65
2022-10-18T01:17:17.182Z,6.97
2022-10-18T01:20:03.738Z,7.82
2022-10-18T01:22:37.375Z,8.75
2022-10-18T01:35:42.484Z,7.82
2022-10-18T01:38:17.295Z,8.63
2022-10-18T01:40:48.508Z,10.13
2022-10-18T01:43:19.132Z,10.93
2022-10-18T01:45:48.923Z,11.68
2022-10-18T01:48:19.556Z,13.20
2022-10-18T01:50:47.773Z,13.07
2022-10-18T01:53:29.930Z,12.45
2022-10-18T01:56:11.719Z,14.18
2022-10-18T02:01:19.417Z,11.98
2022-10-18T02:03:55.244Z,12.85
2022-10-18T02:06:30.118Z,12.90
2022-10-18T02:09:04.511Z,14.65
2022-10-18T02:11:35.912Z,16.95
2022-10-18T02:14:08.730Z,15.20
2022-10-18T02:16:40.911Z,15.20
2022-10-18T02:19:15.724Z,15.68
2022-10-18T02:21:45.217Z,12.80
2022-10-18T02:26:44.609Z,16.83
2022-10-18T02:29:13.526Z,15.32
2022-10-18T02:31:45.676Z,13.75
2022-10-18T02:34:22.692Z,14.88
2022-10-18T02:36:54.653Z,15.55
2022-10-18T02:39:26.553Z,14.13
2022-10-18T02:41:55.076Z,15.73
2022-10-18T02:44:23.485Z,18.65
2022-10-18T02:46:51.817Z,15.48
2022-10-18T02:49:21.371Z,18.40
2022-10-18T04:50:52.653Z,28.02
2022-10-18T04:53:21.308Z,25.73
2022-10-18T04:55:50.325Z,33.25
2022-10-18T04:58:19.742Z,26.73
2022-10-18T05:00:48.637Z,28.08
2022-10-18T05:03:17.249Z,31.90
2022-10-18T05:06:02.734Z,30.35
2022-10-18T05:08:34.856Z,29.40
2022-10-18T05:11:04.455Z,30.92
2022-10-18T05:13:32.903Z,57.25
2022-10-18T05:16:02.609Z,40.20
2022-10-18T05:18:33.274Z,33.60
2022-10-18T05:21:01.494Z,29.00
2022-10-18T05:23:29.709Z,32.65
2022-10-18T05:26:04.378Z,35.00
2022-10-18T05:28:40.991Z,31.42
2022-10-18T05:31:12.313Z,36.42
2022-10-18T05:33:42.742Z,37.97
2022-10-18T05:36:11.257Z,36.67
2022-10-18T05:38:42.997Z,37.17
2022-10-18T05:41:13.776Z,38.38
2022-10-18T05:43:42.056Z,37.53
2022-10-18T05:46:14.795Z,39.88
2022-10-18T05:48:44.789Z,34.92
2022-10-18T05:51:13.234Z,36.65
2022-10-18T05:53:41.509Z,32.67
2022-10-18T05:58:41.699Z,36.70
2022-10-18T06:01:11.244Z,40.35
2022-10-18T06:03:39.497Z,40.30
2022-10-18T06:06:10.334Z,33.20
2022-10-18T06:08:39.994Z,39.40
2022-10-18T06:11:09.007Z,40.88
2022-10-18T06:13:41.708Z,34.78
2022-10-18T06:16:10.717Z,34.55
2022-10-18T06:18:39.188Z,41.22
2022-10-18T06:21:08.111Z,38.63
2022-10-18T06:23:38.775Z,38.75
2022-10-18T06:26:10.588Z,37.60
2022-10-18T06:28:40.219Z,36.78
2022-10-18T06:31:08.827Z,39.05
2022-10-18T06:33:37.982Z,39.38
2022-10-18T06:36:09.397Z,41.85
2022-10-18T06:38:37.585Z,51.33
2022-10-18T06:41:07.196Z,47.95
2022-10-18T06:43:35.489Z,49.97
2022-10-18T06:46:08.226Z,50.00
2022-10-18T06:48:37.313Z,48.40
2022-10-18T06:51:07.715Z,46.80
2022-10-18T06:53:43.965Z,47.33
2022-10-18T06:56:19.531Z,43.45
2022-10-18T06:58:47.864Z,42.95
2022-10-18T07:01:19.130Z,40.42
2022-10-18T07:03:49.081Z,44.42
2022-10-18T07:06:20.029Z,44.53
2022-10-18T07:08:49.801Z,44.47
2022-10-18T07:11:19.970Z,36.38
2022-10-18T07:13:48.314Z,44.05
2022-10-18T07:16:19.628Z,44.83
2022-10-18T07:18:50.388Z,42.03
2022-10-18T07:21:20.182Z,42.65
2022-10-18T07:23:49.209Z,44.97
2022-10-18T07:26:19.419Z,47.83
2022-10-18T07:28:51.036Z,50.30
2022-10-18T07:31:20.715Z,46.13
2022-10-18T07:33:49.012Z,43.92
2022-10-18T07:36:17.415Z,44.75
2022-10-18T07:38:45.773Z,40.85
2022-10-18T07:41:15.141Z,45.63
2022-10-18T07:43:45.881Z,44.85
2022-10-18T07:46:16.953Z,39.63
2022-10-18T07:48:46.836Z,43.03
2022-10-18T07:51:15.260Z,43.80
2022-10-18T07:53:43.504Z,40.60
2022-10-18T07:56:16.319Z,42.60
2022-10-18T07:58:45.241Z,42.03
2022-10-18T08:01:15.173Z,39.85
2022-10-18T08:03:44.137Z,40.65
2022-10-18T08:06:16.438Z,38.72
2022-10-18T08:08:44.896Z,38.03
2022-10-18T08:11:15.371Z,39.17
2022-10-18T08:13:44.260Z,35.83
2022-10-18T08:16:14.803Z,35.90
2022-10-18T08:18:45.377Z,36.28
2022-10-18T08:21:18.408Z,34.67
2022-10-18T08:23:47.089Z,34.63
2022-10-18T08:26:17.058Z,31.92
2022-10-18T08:28:53.707Z,32.53
2022-10-18T08:31:32.512Z,34.20
2022-10-18T08:34:01.064Z,36.03
2022-10-18T08:36:30.699Z,31.80
2022-10-18T08:39:02.927Z,28.73
2022-10-18T08:41:55.336Z,29.50
2022-10-18T08:44:25.647Z,31.05
2022-10-18T08:46:59.829Z,29.23
2022-10-18T08:49:37.162Z,27.80
2022-10-18T08:52:16.916Z,28.52
2022-10-18T08:54:56.880Z,25.35
2022-10-18T08:57:25.178Z,23.52
2022-10-18T08:59:55.869Z,23.08
2022-10-18T09:02:48.794Z,27.50
2022-10-18T09:05:23.730Z,22.50
2022-10-18T09:08:17.222Z,24.90
2022-10-18T09:14:00.401Z,25.02
2022-10-18T09:16:41.053Z,21.63
2022-10-18T09:19:22.821Z,21.27
2022-10-18T09:21:54.154Z,25.45
2022-10-18T09:24:38.710Z,22.75
2022-10-18T09:27:15.751Z,24.83
2022-10-18T09:30:04.368Z,24.53
2022-10-18T09:32:43.918Z,27.90
2022-10-18T09:35:18.074Z,20.20
2022-10-18T09:37:50.186Z,20.30
2022-10-18T09:40:25.832Z,26.98
2022-10-18T09:42:58.278Z,26.55
2022-10-18T09:45:30.457Z,22.83
2022-10-18T09:48:05.140Z,24.50
2022-10-18T09:50:39.296Z,22.38
2022-10-18T09:53:15.991Z,23.00
2022-10-18T09:55:56.543Z,26.65
2022-10-18T09:58:27.992Z,24.37
2022-10-18T10:00:57.274Z,25.15
2022-10-18T10:03:27.208Z,19.95
2022-10-18T10:06:15.967Z,43.70
2022-10-18T10:08:46.172Z,65.43
2022-10-18T10:11:33.148Z,33.22
2022-10-18T10:14:10.531Z,22.97
2022-10-18T10:16:47.932Z,24.70
2022-10-18T10:19:24.773Z,23.23
2022-10-18T10:21:59.862Z,21.65
2022-10-18T10:24:36.193Z,22.40
2022-10-18T10:27:16.676Z,20.02
2022-10-18T10:29:56.692Z,26.38
2022-10-18T10:32:32.716Z,27.90
2022-10-18T10:35:01.094Z,25.67
2022-10-18T10:37:35.769Z,22.65
2022-10-18T10:40:22.907Z,17.75
2022-10-18T10:43:36.365Z,17.13
2022-10-18T10:46:08.726Z,17.63
2022-10-18T10:48:47.266Z,16.17
2022-10-18T10:51:28.801Z,19.63
2022-10-18T10:54:02.264Z,18.35
2022-10-18T10:56:33.104Z,15.27
2022-10-18T10:59:14.604Z,17.87
2022-10-18T11:01:47.838Z,18.40
2022-10-18T11:04:27.817Z,15.55
2022-10-18T11:07:24.425Z,42.70
2022-10-18T11:10:01.103Z,13.60
2022-10-18T11:12:34.579Z,17.20
2022-10-18T11:15:22.847Z,30.65
2022-10-18T11:18:02.562Z,16.75
2022-10-18T11:20:36.401Z,11.40
2022-10-18T11:23:08.200Z,12.88
2022-10-18T11:26:04.567Z,14.00
2022-10-18T11:50:05.623Z,8.80
2022-10-18T11:52:43.613Z,11.75
2022-10-18T11:55:31.908Z,9.13
2022-10-18T11:58:09.035Z,12.45
2022-10-18T12:00:52.241Z,9.88
2022-10-18T12:03:34.947Z,10.68
2022-10-18T12:06:07.632Z,37.20
2022-10-18T12:08:39.935Z,13.05
2022-10-18T12:11:15.665Z,10.02
2022-10-18T12:13:49.565Z,7.85
2022-10-18T12:16:32.754Z,10.45
2022-10-18T12:19:22.129Z,8.95
2022-10-18T12:21:55.069Z,9.63
2022-10-18T12:24:26.514Z,6.95
2022-10-18T12:27:00.064Z,12.45
2022-10-18T12:29:38.283Z,8.63
2022-10-18T12:32:11.690Z,8.60
2022-10-18T12:34:47.856Z,8.55
2022-10-18T12:37:48.634Z,23.30
2022-10-18T12:40:24.472Z,10.13
2022-10-18T12:42:54.543Z,9.20
2022-10-18T12:45:33.263Z,28.65
2022-10-18T12:48:07.754Z,12.70
2022-10-18T12:50:39.789Z,7.60
2022-10-18T12:53:20.329Z,11.80
2022-10-18T12:55:51.553Z,11.13
2022-10-18T12:58:32.104Z,6.35
2022-10-18T13:01:03.110Z,8.45
2022-10-18T13:03:59.849Z,12.55
2022-10-18T13:07:08.747Z,9.63
2022-10-18T13:09:38.286Z,10.98
2022-10-18T13:12:51.795Z,10.73
2022-10-18T13:15:38.283Z,7.75
2022-10-18T13:18:18.693Z,7.00
2022-10-18T13:20:55.672Z,7.88
2022-10-18T13:23:38.999Z,8.43
2022-10-18T13:26:18.914Z,7.32
2022-10-18T13:28:56.199Z,9.25
2022-10-18T13:31:29.180Z,8.70
2022-10-18T13:34:17.344Z,11.75
2022-10-18T13:36:45.704Z,11.77
2022-10-18T13:39:22.069Z,8.98
2022-10-18T13:42:23.768Z,7.18
2022-10-18T13:44:52.115Z,10.20
2022-10-18T13:47:37.425Z,8.00
2022-10-18T13:50:31.314Z,8.00
2022-10-18T13:53:20.266Z,7.10
2022-10-18T13:56:06.864Z,10.13
2022-10-18T13:58:53.786Z,6.88
2022-10-18T14:01:42.707Z,10.63
2022-10-18T14:04:40.919Z,10.20
2022-10-18T14:07:10.014Z,9.95
2022-10-18T14:09:52.266Z,9.07
2022-10-18T14:12:33.787Z,9.38
2022-10-18T14:15:11.293Z,6.88
2022-10-18T14:17:43.337Z,6.18
2022-10-18T14:20:29.286Z,6.15
2022-10-18T14:23:05.272Z,10.23
2022-10-18T14:25:35.840Z,8.07
2022-10-18T14:28:11.359Z,8.05
2022-10-18T14:30:53.775Z,11.93
2022-10-18T14:33:40.729Z,10.00
2022-10-18T14:36:14.505Z,8.57
2022-10-18T14:38:50.191Z,8.57
2022-10-18T14:41:22.624Z,9.23
2022-10-18T14:43:53.584Z,8.52
2022-10-18T14:46:27.311Z,8.18
2022-10-18T14:48:59.453Z,7.18
2022-10-18T14:51:36.754Z,8.05
2022-10-18T14:54:05.136Z,11.63
2022-10-18T14:56:38.413Z,19.95
2022-10-18T14:59:17.735Z,16.45
2022-10-18T15:01:55.009Z,9.68
2022-10-18T15:04:27.862Z,8.57
2022-10-18T15:06:57.359Z,9.80
2022-10-18T15:09:26.527Z,7.85
2022-10-18T15:11:57.871Z,7.15
2022-10-18T15:14:29.799Z,11.93
2022-10-18T15:17:02.839Z,10.80
2022-10-18T15:19:34.542Z,16.02
2022-10-18T15:22:31.277Z,10.85
2022-10-18T15:25:14.569Z,8.90
2022-10-18T15:27:46.316Z,8.98
2022-10-18T15:30:22.983Z,29.40
2022-10-18T15:32:55.085Z,11.93
2022-10-18T15:35:27.360Z,12.43
2022-10-18T15:37:57.312Z,5.60
2022-10-18T15:40:46.448Z,18.58
2022-10-18T15:43:37.966Z,10.27
2022-10-18T15:46:08.304Z,11.68
2022-10-18T15:48:38.850Z,10.27
2022-10-18T15:51:08.686Z,7.82
2022-10-18T15:56:14.783Z,8.20
2022-10-18T15:58:45.318Z,10.55
2022-10-18T16:01:21.243Z,10.68
2022-10-18T16:03:50.761Z,5.78
2022-10-18T16:06:19.934Z,6.18
2022-10-18T16:08:50.282Z,5.68
2022-10-18T16:11:21.134Z,8.13
2022-10-18T16:13:50.037Z,7.73
2022-10-18T16:16:21.847Z,8.75
2022-10-18T16:18:50.222Z,6.85
2022-10-18T16:21:20.882Z,12.48
2022-10-18T16:23:50.179Z,8.02
2022-10-18T16:26:19.922Z,8.27
2022-10-18T16:28:51.472Z,7.43
2022-10-18T16:31:22.717Z,9.75
2022-10-18T16:33:52.297Z,10.27
2022-10-18T16:36:24.671Z,10.27
2022-10-18T16:38:55.042Z,11.57
2022-10-18T16:41:24.266Z,14.30
2022-10-18T16:43:52.619Z,9.18
2022-10-18T16:46:24.198Z,13.43
2022-10-18T16:48:52.694Z,14.93
2022-10-18T16:51:21.058Z,12.52
2022-10-18T16:53:49.965Z,13.40
2022-10-18T16:56:23.033Z,8.98
2022-10-18T16:58:54.278Z,7.50
2022-10-18T17:01:25.354Z,8.00
2022-10-18T17:03:53.952Z,8.93
2022-10-18T17:06:24.544Z,5.70
2022-10-18T17:08:54.176Z,6.10
2022-10-18T17:11:24.340Z,7.82
2022-10-18T17:13:52.693Z,7.55
2022-10-18T17:18:58.833Z,6.18
2022-10-18T17:21:28.791Z,9.43
2022-10-18T17:24:00.548Z,12.45
2022-10-18T17:26:30.127Z,9.80
2022-10-18T17:29:01.117Z,8.93
2022-10-18T17:31:31.822Z,8.88
2022-10-18T17:34:01.863Z,8.45
2022-10-18T17:36:30.584Z,5.82
2022-10-18T17:38:59.349Z,3.97
2022-10-18T17:41:27.948Z,7.30
2022-10-18T17:43:56.436Z,9.15
2022-10-18T17:46:24.777Z,6.65
2022-10-18T17:48:54.766Z,6.07
2022-10-18T17:51:25.201Z,6.70
2022-10-18T17:53:53.483Z,5.80
2022-10-18T17:56:21.755Z,7.93
2022-10-18T17:58:51.979Z,4.93
2022-10-18T18:01:22.978Z,4.63
2022-10-18T18:03:52.262Z,6.78
2022-10-18T18:06:30.731Z,9.53
2022-10-18T18:09:00.361Z,6.85
2022-10-18T18:11:29.485Z,5.53
2022-10-18T18:13:58.343Z,8.52
2022-10-18T18:16:28.011Z,7.18
2022-10-18T18:18:57.810Z,7.35
2022-10-18T18:21:28.274Z,12.73
2022-10-18T18:23:56.958Z,7.22
2022-10-18T18:26:25.471Z,7.65
2022-10-18T18:28:53.919Z,6.45
2022-10-18T18:31:24.776Z,9.95
2022-10-18T18:33:54.380Z,12.30
2022-10-18T18:36:23.602Z,8.52
2022-10-18T18:38:57.011Z,10.57
2022-10-18T18:41:27.316Z,28.80
2022-10-18T18:43:57.611Z,10.75
2022-10-18T18:46:32.978Z,11.30
2022-10-18T18:49:01.412Z,27.50
2022-10-18T18:51:30.032Z,13.00
2022-10-18T18:53:59.634Z,7.25
2022-10-18T18:56:30.541Z,7.05
2022-10-18T18:59:00.932Z,6.77
2022-10-18T19:01:31.493Z,5.97
2022-10-18T19:04:00.846Z,7.95
2022-10-18T19:06:30.730Z,6.65
2022-10-18T19:09:03.823Z,5.15
2022-10-18T19:11:34.802Z,5.63
2022-10-18T19:14:04.336Z,6.27
2022-10-18T19:16:36.106Z,5.97
2022-10-18T19:19:08.777Z,5.15
2022-10-18T19:21:38.718Z,6.85
2022-10-18T19:24:09.294Z,6.47
2022-10-18T19:26:39.251Z,7.27
2022-10-18T19:29:13.523Z,4.88
2022-10-18T19:31:42.644Z,6.68
2022-10-18T19:34:13.518Z,8.02
2022-10-18T19:36:43.206Z,5.17
2022-10-18T19:39:15.924Z,8.10
2022-10-18T19:41:44.283Z,15.52
2022-10-18T19:44:12.565Z,5.32
2022-10-18T19:46:40.963Z,6.05
2022-10-18T19:49:09.858Z,8.82
2022-10-18T19:51:39.442Z,6.03
2022-10-18T19:54:08.015Z,8.45
2022-10-18T19:56:37.730Z,6.63
2022-10-18T19:59:06.878Z,7.32
2022-10-18T20:01:38.953Z,6.22
2022-10-18T20:04:10.178Z,7.20
2022-10-18T20:06:39.568Z,11.10
2022-10-18T20:09:09.487Z,5.85
2022-10-18T20:11:39.516Z,8.10
2022-10-18T20:14:09.613Z,7.65
2022-10-18T20:16:38.583Z,6.95
2022-10-18T20:19:09.525Z,7.68
2022-10-18T20:21:39.490Z,9.60
2022-10-18T20:24:09.344Z,8.07
2022-10-18T20:26:40.285Z,10.98
2022-10-18T20:29:08.565Z,7.93
2022-10-18T20:31:39.238Z,13.83
2022-10-18T20:34:12.995Z,8.70
2022-10-18T20:36:41.388Z,8.10
2022-10-18T20:39:10.135Z,9.00
2022-10-18T20:41:42.868Z,9.27
2022-10-18T20:44:14.794Z,8.20
2022-10-18T20:46:43.957Z,7.05
2022-10-18T21:29:07.227Z,13.65
2022-10-18T21:31:39.203Z,7.53
2022-10-18T21:34:09.999Z,3.20
2022-10-18T21:36:41.455Z,8.25
2022-10-18T21:39:11.841Z,6.05
2022-10-18T21:41:40.137Z,6.38
2022-10-18T21:44:10.712Z,8.73
2022-10-18T21:46:43.070Z,11.20
2022-10-18T21:49:13.975Z,6.25
2022-10-18T21:51:42.484Z,4.55
2022-10-18T21:54:14.025Z,6.68
2022-10-18T21:56:42.335Z,5.85
2022-10-18T21:59:12.319Z,8.02
2022-10-18T22:01:43.672Z,3.05
2022-10-18T22:04:20.976Z,7.25
2022-10-18T22:06:52.162Z,6.05
2022-10-18T22:09:22.105Z,7.53
2022-10-18T22:11:54.716Z,6.82
2022-10-18T22:14:23.685Z,5.30
2022-10-18T22:16:53.399Z,9.05
2022-10-18T22:19:22.132Z,4.70
2022-10-18T22:21:53.453Z,7.97
2022-10-18T22:24:21.724Z,10.10
2022-10-18T22:26:52.322Z,9.52
2022-10-18T22:29:21.917Z,5.53
2022-10-18T22:31:53.334Z,7.90
2022-10-18T22:34:23.284Z,2.60
2022-10-18T22:36:51.578Z,4.90
2022-10-18T22:39:19.852Z,6.47
2022-10-18T22:41:52.222Z,4.35
2022-10-18T22:44:20.387Z,6.32
2022-10-18T22:46:48.585Z,4.63
2022-10-18T22:49:18.477Z,4.78
2022-10-18T22:51:46.770Z,5.32
2022-10-18T22:54:17.885Z,4.78
2022-10-18T22:56:46.176Z,6.95
2022-10-18T22:59:14.398Z,4.90
2022-10-18T23:01:45.738Z,7.55
2022-10-18T23:04:13.975Z,3.70
2022-10-18T23:06:43.623Z,7.30
2022-10-18T23:09:13.313Z,5.28
2022-10-18T23:11:42.296Z,4.88
2022-10-18T23:14:11.442Z,9.15
2022-10-18T23:16:39.669Z,3.40
2022-10-18T23:19:07.910Z,6.03
2022-10-18T23:21:36.368Z,4.50
2022-10-18T23:24:08.163Z,7.63
2022-10-18T23:26:38.690Z,6.90
2022-10-18T23:29:06.939Z,6.50
2022-10-18T23:31:35.328Z,5.78
2022-10-18T23:34:06.819Z,6.43
2022-10-18T23:36:35.535Z,4.68
2022-10-18T23:39:04.907Z,4.70
2022-10-18T23:41:34.904Z,6.10
2022-10-18T23:44:03.525Z,5.32
2022-10-18T23:46:31.728Z,7.28
2022-10-18T23:49:00.020Z,5.30
2022-10-18T23:51:28.272Z,5.72
2022-10-18T23:53:56.530Z,5.35
2022-10-18T23:56:24.759Z,2.85
2022-10-18T23:58:54.373Z,3.03
